Time;durP1;ratioP1;P1;durP2;ratioP2;P2;SDS_P1;SDS_P2;PMS_P1;PMS_P2;Temp;Humidity;BMP_temperature;BMP_pressure;BME280_temperature;BME280_humidity;BME280_pressure;Samples;Min_cycle;Max_cycle;Signal;HPM_P1;HPM_P2
2023/07/31 00:00:55;;;;;;;39.47;2.80;;;;;;;24.89;51.27;99134.09;7314175;19;130516;-38
2023/07/31 00:03:20;;;;;;;51.80;3.63;;;;;;;24.84;51.67;99130.34;7314153;19;129903;-40
2023/07/31 00:05:45;;;;;;;30.33;2.17;;;;;;;25.10;54.61;99136.13;7316255;19;129611;-41
2023/07/31 00:08:11;;;;;;;28.20;2.17;;;;;;;25.22;54.67;99129.50;7314214;19;130438;-40
2023/07/31 00:10:36;;;;;;;37.20;2.73;;;;;;;25.26;54.56;99125.50;7316857;19;129667;-38
2023/07/31 00:13:01;;;;;;;32.87;2.33;;;;;;;25.20;54.85;99105.97;7315320;19;129981;-39
2023/07/31 00:15:27;;;;;;;29.00;2.07;;;;;;;25.33;54.66;99123.81;7316301;19;130008;-41
2023/07/31 00:17:52;;;;;;;68.73;4.40;;;;;;;25.35;54.89;99121.88;7314359;19;130358;-42
2023/07/31 00:20:17;;;;;;;26.47;2.13;;;;;;;25.36;54.65;99120.84;7314509;19;130441;-39
2023/07/31 00:22:43;;;;;;;40.30;2.63;;;;;;;25.36;55.26;99119.06;7316399;19;129347;-39
2023/07/31 00:25:08;;;;;;;46.97;3.37;;;;;;;25.37;55.15;99115.41;7312449;19;130512;-40
2023/07/31 00:27:34;;;;;;;18.60;1.50;;;;;;;25.38;54.99;99118.88;7314525;19;129562;-38
2023/07/31 00:29:59;;;;;;;73.93;4.67;;;;;;;25.37;54.77;99125.16;7313591;19;129876;-38
2023/07/31 00:32:24;;;;;;;38.80;2.47;;;;;;;25.37;55.15;99122.50;7314667;19;129887;-38
2023/07/31 00:34:50;;;;;;;38.53;2.60;;;;;;;25.35;55.07;99116.59;7311480;19;129289;-39
2023/07/31 00:37:15;;;;;;;43.00;2.80;;;;;;;24.96;51.67;99113.19;7314107;19;129199;-39
2023/07/31 00:39:41;;;;;;;28.63;2.03;;;;;;;24.82;51.00;99116.56;7314135;19;130902;-38
2023/07/31 00:42:06;;;;;;;32.57;2.17;;;;;;;24.79;50.80;99109.00;7315108;19;128934;-38
2023/07/31 00:44:32;;;;;;;32.57;2.17;;;;;;;24.91;53.97;99108.44;7313550;19;129881;-39
2023/07/31 00:46:59;;;;;;;31.23;2.37;;;;;;;25.03;54.25;99093.91;7314737;19;129140;-39
2023/07/31 00:49:25;;;;;;;27.95;2.08;;;;;;;25.22;54.68;99113.69;7315305;19;128871;-40
2023/07/31 00:51:51;;;;;;;30.52;2.05;;;;;;;25.28;54.89;99118.25;7315257;19;128742;-38
2023/07/31 00:54:16;;;;;;;44.03;2.80;;;;;;;25.32;55.07;99109.81;7311839;19;130095;-39
2023/07/31 00:56:45;;;;;;;28.20;2.00;;;;;;;25.32;55.33;99106.41;7315736;19;129401;-38
2023/07/31 00:59:10;;;;;;;45.13;3.15;;;;;;;25.34;54.88;99107.84;7311342;19;129539;-38
2023/07/31 01:01:36;;;;;;;34.93;2.40;;;;;;;25.34;55.42;99101.75;7310402;19;129176;-38
2023/07/31 01:04:01;;;;;;;74.33;4.60;;;;;;;25.33;55.31;99095.69;7304243;19;129580;-41
2023/07/31 01:06:33;;;;;;;61.07;4.10;;;;;;;25.38;55.56;99103.09;7310232;19;130686;-38
2023/07/31 01:09:15;;;;;;;34.15;2.30;;;;;;;25.34;55.21;99101.75;7312300;19;128900;-38
2023/07/31 01:11:51;;;;;;;27.85;2.08;;;;;;;25.38;55.44;99103.09;7313813;19;128802;-39
2023/07/31 01:14:17;;;;;;;28.52;2.03;;;;;;;25.35;55.18;99093.72;7311070;19;130323;-38
2023/07/31 01:16:42;;;;;;;38.60;2.77;;;;;;;25.14;53.06;99090.06;7313674;19;130471;-40
2023/07/31 01:19:10;;;;;;;34.87;2.43;;;;;;;24.89;51.33;99091.22;7313163;19;129086;-38
2023/07/31 01:21:35;;;;;;;46.72;3.20;;;;;;;24.81;51.01;99088.63;7310857;19;129781;-38
2023/07/31 01:24:18;;;;;;;51.47;3.63;;;;;;;24.72;52.63;99073.88;7311672;19;129378;-40
2023/07/31 01:26:47;;;;;;;55.30;3.35;;;;;;;25.07;54.96;99083.88;7311902;19;129379;-38
2023/07/31 01:29:20;;;;;;;49.40;3.05;;;;;;;25.20;54.93;99081.47;7312348;19;129515;-38
2023/07/31 01:31:49;;;;;;;36.85;2.35;;;;;;;25.26;55.10;99083.41;7312667;19;129111;-38
2023/07/31 01:34:17;;;;;;;28.73;2.22;;;;;;;25.30;55.03;99082.06;7312602;19;129963;-41
2023/07/31 01:36:43;;;;;;;39.45;2.60;;;;;;;25.31;55.07;99081.06;7312858;19;129328;-40
2023/07/31 01:39:09;;;;;;;81.47;5.07;;;;;;;25.33;54.99;99081.72;7311897;19;129775;-40
2023/07/31 01:41:34;;;;;;;32.57;2.30;;;;;;;25.34;55.41;99086.78;7313598;19;128991;-39
2023/07/31 01:44:00;;;;;;;38.93;2.63;;;;;;;25.35;54.77;99087.66;7312602;19;130115;-40
2023/07/31 01:46:25;;;;;;;32.77;2.43;;;;;;;25.35;54.91;99072.66;7313247;19;130296;-40
2023/07/31 01:48:51;;;;;;;47.07;2.90;;;;;;;25.34;55.31;99068.38;7312284;19;129296;-40
2023/07/31 01:51:16;;;;;;;27.73;2.00;;;;;;;25.32;55.00;99080.09;7314896;19;129805;-40
2023/07/31 01:53:41;;;;;;;39.60;2.50;;;;;;;25.28;54.84;99061.19;7310349;19;130849;-39
2023/07/31 01:56:06;;;;;;;58.37;3.33;;;;;;;25.35;55.59;99067.41;7312066;19;129595;-40
2023/07/31 01:58:32;;;;;;;53.93;3.30;;;;;;;24.81;51.86;99049.19;7311930;19;129114;-40
2023/07/31 02:00:57;;;;;;;36.77;2.43;;;;;;;24.86;51.05;99083.69;7308867;19;131682;-40
2023/07/31 02:03:23;;;;;;;53.53;3.63;;;;;;;24.79;51.35;99073.00;7311619;19;129249;-39
2023/07/31 02:05:49;;;;;;;37.03;2.47;;;;;;;24.92;54.23;99075.09;7313257;19;130310;-40
2023/07/31 02:08:15;;;;;;;33.05;2.20;;;;;;;25.11;54.29;99074.63;7313069;19;129343;-40
2023/07/31 02:10:40;;;;;;;43.87;2.83;;;;;;;25.22;54.70;99067.13;7310951;19;130233;-40
2023/07/31 02:13:06;;;;;;;38.87;2.60;;;;;;;25.27;54.81;99069.25;7311983;19;130640;-39
2023/07/31 02:15:32;;;;;;;10.53;0.97;;;;;;;25.29;55.14;99051.47;7313934;19;130336;-40
2023/07/31 02:17:58;;;;;;;37.77;2.47;;;;;;;25.32;54.56;99064.28;7312322;19;129076;-40
2023/07/31 02:20:23;;;;;;;36.00;2.47;;;;;;;25.33;54.64;99055.38;7310051;19;129277;-41
2023/07/31 02:22:48;;;;;;;27.70;1.77;;;;;;;25.34;54.71;99049.13;7313501;19;130183;-39
2023/07/31 02:25:14;;;;;;;42.27;2.70;;;;;;;25.33;55.30;99053.59;7308699;19;129171;-40
2023/07/31 02:27:39;;;;;;;43.17;3.00;;;;;;;25.33;55.50;99058.84;7311480;19;128913;-39
2023/07/31 02:30:05;;;;;;;41.97;2.73;;;;;;;25.32;54.97;99059.03;7310312;19;129071;-40
2023/07/31 02:32:31;;;;;;;27.97;1.87;;;;;;;25.33;55.56;99052.75;7311193;19;129301;-39
2023/07/31 02:34:56;;;;;;;48.43;2.83;;;;;;;25.33;55.27;99060.66;7309697;19;130352;-40
2023/07/31 02:37:21;;;;;;;27.17;1.90;;;;;;;25.02;51.79;99044.94;7311278;19;129981;-40
2023/07/31 02:39:47;;;;;;;33.27;2.17;;;;;;;24.83;51.43;99062.97;7311613;19;129160;-39
2023/07/31 02:42:13;;;;;;;25.03;1.77;;;;;;;24.76;50.99;99070.72;7310848;19;129422;-40
2023/07/31 02:44:39;;;;;;;43.08;2.58;;;;;;;24.76;51.42;99056.78;7309540;19;129723;-40
2023/07/31 02:47:04;;;;;;;53.17;3.60;;;;;;;25.04;54.62;99060.56;7312587;19;129756;-40
2023/07/31 02:49:29;;;;;;;25.40;1.70;;;;;;;25.18;55.12;99059.78;7311676;19;128825;-39
2023/07/31 02:51:55;;;;;;;45.10;2.67;;;;;;;25.26;54.73;99046.56;7311492;19;129676;-40
2023/07/31 02:54:21;;;;;;;47.20;2.90;;;;;;;25.30;55.08;99058.38;7309480;19;129118;-40
2023/07/31 02:56:47;;;;;;;28.58;2.00;;;;;;;25.30;54.83;99053.91;7310460;19;128914;-39
2023/07/31 02:59:12;;;;;;;25.03;1.73;;;;;;;25.24;54.71;99048.53;7310006;19;129698;-41
2023/07/31 03:01:38;;;;;;;58.47;3.83;;;;;;;25.32;54.73;99056.41;7313905;19;129076;-39
2023/07/31 03:04:03;;;;;;;54.43;3.27;;;;;;;25.34;55.31;99059.66;7315767;19;129216;-39
2023/07/31 03:06:29;;;;;;;31.53;2.17;;;;;;;25.33;54.79;99052.75;7317248;19;129031;-40
2023/07/31 03:08:54;;;;;;;26.73;1.83;;;;;;;25.23;55.11;99041.66;7315816;19;129068;-39
2023/07/31 03:11:19;;;;;;;42.60;2.70;;;;;;;25.33;55.11;99058.84;7314152;19;129719;-40
2023/07/31 03:13:45;;;;;;;55.23;3.73;;;;;;;25.24;55.63;99049.38;7315384;19;129546;-39
2023/07/31 03:16:10;;;;;;;22.83;1.67;;;;;;;25.32;55.71;99070.34;7317344;19;129689;-39
2023/07/31 03:18:35;;;;;;;29.63;2.00;;;;;;;24.99;51.66;99076.03;7317914;19;129316;-41
2023/07/31 03:21:01;;;;;;;43.67;2.57;;;;;;;24.77;51.25;99072.38;7316650;19;129953;-40
2023/07/31 03:23:26;;;;;;;29.70;2.03;;;;;;;24.75;51.61;99073.53;7317580;19;129619;-39
2023/07/31 03:26:03;;;;;;;75.80;4.93;;;;;;;24.87;54.63;99072.16;7316343;19;128927;-40
2023/07/31 03:28:29;;;;;;;42.67;2.90;;;;;;;25.03;54.69;99061.53;7314754;19;129123;-39
2023/07/31 03:30:55;;;;;;;32.83;2.13;;;;;;;25.18;54.46;99070.31;7317330;19;129524;-39
2023/07/31 03:33:20;;;;;;;59.50;3.80;;;;;;;25.26;54.65;99072.88;7314050;19;131087;-39
2023/07/31 03:35:46;;;;;;;25.03;1.87;;;;;;;25.30;54.49;99069.69;7317984;19;128837;-39
2023/07/31 03:38:11;;;;;;;14.60;1.07;;;;;;;25.31;54.79;99068.72;7316346;19;129616;-40
2023/07/31 03:40:36;;;;;;;48.67;3.17;;;;;;;25.29;54.62;99057.56;7313675;19;129228;-40
2023/07/31 03:43:02;;;;;;;33.47;2.07;;;;;;;25.31;55.05;99070.53;7318582;19;129432;-39
2023/07/31 03:45:27;;;;;;;22.33;1.60;;;;;;;25.32;55.48;99072.19;7312999;19;129578;-39
2023/07/31 03:47:54;;;;;;;24.93;1.80;;;;;;;25.31;55.21;99076.63;7316692;19;129299;-40
2023/07/31 03:50:19;;;;;;;62.90;3.72;;;;;;;25.31;55.48;99081.06;7314314;19;131012;-41
2023/07/31 03:52:45;;;;;;;88.60;5.37;;;;;;;25.31;55.46;99075.78;7314547;19;129230;-40
2023/07/31 03:55:10;;;;;;;27.33;1.80;;;;;;;25.31;55.37;99071.34;7313945;19;129676;-40
2023/07/31 03:57:35;;;;;;;22.67;1.70;;;;;;;25.30;55.63;99069.69;7316124;19;129080;-40
2023/07/31 04:00:01;;;;;;;68.90;4.27;;;;;;;24.84;52.04;99073.31;7314340;19;130114;-40
2023/07/31 04:02:26;;;;;;;35.47;2.10;;;;;;;24.74;51.47;99078.00;7316357;19;129996;-41
2023/07/31 04:04:51;;;;;;;34.00;2.17;;;;;;;24.71;51.64;99064.38;7313707;19;129941;-40
2023/07/31 04:07:17;;;;;;;27.20;1.87;;;;;;;24.93;54.26;99066.19;7316412;19;129439;-40
2023/07/31 04:09:42;;;;;;;53.47;3.17;;;;;;;25.12;54.73;99065.75;7315372;19;128967;-37
2023/07/31 04:12:08;;;;;;;25.07;1.63;;;;;;;25.21;54.78;99072.56;7316267;19;129173;-40
2023/07/31 04:14:33;;;;;;;23.77;1.73;;;;;;;25.24;54.74;99065.16;7314679;19;130030;-41
2023/07/31 04:16:58;;;;;;;56.20;3.57;;;;;;;25.27;54.50;99059.53;7314932;19;129574;-39
2023/07/31 04:19:24;;;;;;;42.07;2.57;;;;;;;25.30;54.62;99053.13;7316220;19;130150;-40
2023/07/31 04:21:49;;;;;;;26.63;1.73;;;;;;;25.31;54.81;99065.28;7314752;19;129322;-40
2023/07/31 04:24:15;;;;;;;30.57;1.97;;;;;;;25.32;54.75;99053.75;7314372;19;129243;-40
2023/07/31 04:26:40;;;;;;;34.37;2.20;;;;;;;25.24;55.12;99044.09;7315314;19;129459;-39
2023/07/31 04:29:05;;;;;;;36.73;2.47;;;;;;;25.31;55.13;99050.31;7314595;19;129219;-39
2023/07/31 04:31:31;;;;;;;70.10;4.37;;;;;;;25.20;55.23;99053.38;7312692;19;130561;-40
2023/07/31 04:33:56;;;;;;;52.70;3.37;;;;;;;25.17;56.63;99042.38;7313367;19;129469;-40
2023/07/31 04:36:21;;;;;;;51.03;3.03;;;;;;;25.19;56.57;99035.09;7313114;19;129433;-40
2023/07/31 04:38:47;;;;;;;39.17;2.60;;;;;;;25.23;56.65;99031.13;7313328;19;129561;-39
2023/07/31 04:41:12;;;;;;;40.63;2.67;;;;;;;24.81;52.44;99030.78;7310967;19;130184;-39
2023/07/31 04:43:39;;;;;;;62.73;3.90;;;;;;;24.75;52.10;99036.72;7314179;19;129186;-39
2023/07/31 04:46:05;;;;;;;59.63;3.50;;;;;;;24.75;51.45;99020.94;7313050;19;130108;-39
2023/07/31 04:48:30;;;;;;;11.57;0.80;;;;;;;24.88;54.10;99016.75;7314393;19;129948;-40
2023/07/31 04:50:56;;;;;;;32.87;2.03;;;;;;;25.10;54.52;99020.38;7313752;19;129732;-39
2023/07/31 04:53:21;;;;;;;48.17;3.10;;;;;;;25.18;55.13;99017.69;7313677;19;129502;-39
2023/07/31 04:55:46;;;;;;;39.20;2.33;;;;;;;25.23;56.12;99015.34;7313670;19;129288;-41
2023/07/31 04:58:12;;;;;;;47.00;2.87;;;;;;;25.26;55.82;99012.34;7310539;19;130285;-40
2023/07/31 05:00:37;;;;;;;59.73;3.47;;;;;;;25.27;55.87;99011.38;7307169;19;130371;-39
2023/07/31 05:03:02;;;;;;;43.27;2.60;;;;;;;25.28;56.08;99013.81;7310452;19;129559;-40
2023/07/31 05:05:28;;;;;;;53.67;3.23;;;;;;;25.31;56.84;99004.75;7306546;19;131791;-40
2023/07/31 05:07:53;;;;;;;47.67;3.00;;;;;;;25.31;56.91;99012.63;7309772;19;129826;-40
2023/07/31 05:18:31;;;;;;;75.72;4.65;;;;;;;24.80;56.42;99008.09;7337919;19;130495;-63
2023/07/31 05:20:57;;;;;;;69.13;4.33;;;;;;;24.65;57.12;99017.69;7174027;19;3238890;-63
2023/07/31 05:23:22;;;;;;;33.23;2.33;;;;;;;24.60;57.21;99012.94;7346540;19;128966;-60
2023/07/31 05:25:47;;;;;;;38.00;2.73;;;;;;;24.48;54.03;99009.91;7344012;19;129728;-40
2023/07/31 05:28:13;;;;;;;43.07;3.00;;;;;;;24.44;53.41;99002.53;7346229;19;129108;-39
2023/07/31 05:30:38;;;;;;;66.60;3.70;;;;;;;24.44;53.09;99008.59;7348192;19;128896;-41
2023/07/31 05:33:03;;;;;;;64.70;3.73;;;;;;;24.46;52.45;99004.00;7346614;19;129671;-39
2023/07/31 05:35:29;;;;;;;16.97;1.20;;;;;;;24.59;55.14;99000.00;7346933;19;129618;-41
2023/07/31 05:37:54;;;;;;;29.87;1.67;;;;;;;24.71;56.97;99006.53;7345622;19;128877;-41
2023/07/31 05:40:19;;;;;;;56.70;3.37;;;;;;;24.77;56.84;98996.13;7347093;19;130341;-40
2023/07/31 05:42:45;;;;;;;26.07;1.90;;;;;;;24.81;57.26;99004.50;7344135;19;129454;-41
2023/07/31 05:45:10;;;;;;;59.50;3.30;;;;;;;24.74;57.10;98972.81;7346170;19;129106;-40
2023/07/31 05:47:36;;;;;;;62.40;3.63;;;;;;;24.85;57.00;99000.50;7345816;19;129286;-42
2023/07/31 05:50:02;;;;;;;60.53;3.60;;;;;;;24.87;57.40;98999.34;7347710;19;128954;-41
2023/07/31 05:52:28;;;;;;;43.53;2.53;;;;;;;24.87;57.32;98993.28;7346771;19;129206;-40
2023/07/31 05:54:54;;;;;;;51.55;3.13;;;;;;;24.88;57.86;98984.38;7346379;19;129292;-41
2023/07/31 05:57:20;;;;;;;49.40;2.83;;;;;;;24.90;57.38;98998.16;7345571;19;130206;-41
2023/07/31 05:59:45;;;;;;;74.83;4.00;;;;;;;24.91;58.00;98998.00;7346364;19;128919;-42
2023/07/31 06:02:11;;;;;;;50.20;2.87;;;;;;;24.93;58.02;98989.94;7346862;19;129746;-41
2023/07/31 06:04:36;;;;;;;57.50;3.47;;;;;;;24.93;58.07;98987.28;7347366;19;129555;-39
2023/07/31 06:07:02;;;;;;;65.40;3.57;;;;;;;24.94;58.53;98983.69;7345374;19;128840;-40
2023/07/31 06:09:28;;;;;;;44.63;2.60;;;;;;;24.83;56.54;98976.19;7346242;19;128845;-42
2023/07/31 06:11:53;;;;;;;105.17;5.90;;;;;;;24.61;53.33;98987.50;7346494;19;129055;-39
2023/07/31 06:14:19;;;;;;;95.70;5.50;;;;;;;24.48;53.23;98976.75;7341604;19;131131;-40
2023/07/31 06:16:44;;;;;;;70.27;4.33;;;;;;;24.57;52.04;98992.28;7339309;19;129487;-41
2023/07/31 06:19:10;;;;;;;84.80;5.30;;;;;;;24.60;54.19;98991.09;7334485;19;132536;-41
2023/07/31 06:21:37;;;;;;;103.07;6.47;;;;;;;24.75;55.90;98989.41;7338997;19;129914;-40
2023/07/31 06:24:03;;;;;;;76.75;4.50;;;;;;;24.83;56.25;98991.97;7344979;19;129321;-41
2023/07/31 06:26:28;;;;;;;98.57;6.07;;;;;;;24.88;56.92;98987.00;7346183;19;129123;-40
2023/07/31 06:28:54;;;;;;;42.50;2.83;;;;;;;24.89;57.54;98986.81;7325369;19;129287;-41
2023/07/31 06:31:22;;;;;;;46.13;3.33;;;;;;;24.91;57.44;98989.28;7318580;19;129648;-41
2023/07/31 06:33:48;;;;;;;31.92;2.78;;;;;;;24.90;57.70;99000.81;7315553;19;129380;-40
2023/07/31 06:36:13;;;;;;;67.20;4.60;;;;;;;24.88;57.34;98985.19;7312266;19;130952;-38
2023/07/31 06:38:38;;;;;;;82.40;5.27;;;;;;;24.90;57.62;98998.16;7306552;19;129938;-40
2023/07/31 06:41:04;;;;;;;71.87;4.77;;;;;;;24.91;58.00;98999.78;7309747;19;130279;-36
2023/07/31 06:43:29;;;;;;;90.53;5.50;;;;;;;24.88;58.25;98984.38;7311185;19;129311;-41
2023/07/31 06:45:54;;;;;;;87.00;5.77;;;;;;;24.82;58.04;98979.81;7310461;19;130276;-40
2023/07/31 06:48:20;;;;;;;50.97;3.83;;;;;;;24.92;58.26;98990.94;7308056;19;129309;-39
2023/07/31 06:50:45;;;;;;;79.60;5.27;;;;;;;24.92;57.68;98983.03;7307057;19;131838;-41
2023/07/31 06:53:11;;;;;;;63.30;4.03;;;;;;;24.92;57.92;98988.31;7310470;19;130126;-41
2023/07/31 06:55:36;;;;;;;99.30;6.20;;;;;;;24.93;57.79;98987.28;7310101;19;130802;-39
2023/07/31 06:58:01;;;;;;;85.27;5.40;;;;;;;24.64;53.40;98989.78;7307943;19;131069;-41
2023/07/31 07:00:27;;;;;;;60.30;4.03;;;;;;;24.44;52.28;98977.06;7312293;19;130056;-38
2023/07/31 07:02:52;;;;;;;84.30;5.30;;;;;;;24.51;52.73;98992.94;7311766;19;130632;-39
2023/07/31 07:05:18;;;;;;;66.00;4.13;;;;;;;24.56;54.53;98995.09;7311991;19;129220;-40
2023/07/31 07:07:43;;;;;;;99.47;6.23;;;;;;;24.74;55.96;98993.03;7307058;19;130419;-40
2023/07/31 07:10:09;;;;;;;77.37;5.03;;;;;;;24.82;56.51;98992.97;7311774;19;129083;-41
2023/07/31 07:12:35;;;;;;;72.63;5.10;;;;;;;24.88;56.86;98994.88;7313384;19;130572;-41
2023/07/31 07:15:01;;;;;;;45.92;3.25;;;;;;;24.90;56.50;98999.00;7313546;19;129799;-40
2023/07/31 07:17:28;;;;;;;50.77;3.60;;;;;;;24.88;56.86;98998.34;7312291;19;129290;-39
2023/07/31 07:19:55;;;;;;;46.00;3.15;;;;;;;24.90;57.05;98992.91;7311959;19;130785;-39
2023/07/31 07:22:20;;;;;;;49.40;3.60;;;;;;;24.91;56.63;98999.78;7314213;19;129534;-42
2023/07/31 07:24:45;;;;;;;56.40;3.67;;;;;;;24.91;57.33;99003.25;7314303;19;130307;-40
2023/07/31 07:27:10;;;;;;;32.60;2.70;;;;;;;24.83;57.54;98976.19;7315047;19;129219;-41
2023/07/31 07:29:38;;;;;;;48.47;3.40;;;;;;;24.92;57.44;98990.94;7315244;19;129345;-37
2023/07/31 07:32:03;;;;;;;40.45;3.30;;;;;;;24.91;57.43;98990.09;7314852;19;128955;-39
2023/07/31 07:34:29;;;;;;;32.57;2.83;;;;;;;24.91;57.53;98987.47;7314875;19;129045;-40
2023/07/31 07:36:55;;;;;;;71.67;4.90;;;;;;;24.88;57.44;98984.38;7314462;19;129373;-42
2023/07/31 07:39:20;;;;;;;77.00;5.03;;;;;;;24.92;57.38;98983.88;7308154;19;131837;-41
2023/07/31 07:41:46;;;;;;;82.80;5.30;;;;;;;24.68;53.28;98980.56;7311967;19;131052;-40
2023/07/31 07:44:12;;;;;;;35.67;2.67;;;;;;;24.60;52.48;98988.47;7312778;19;130013;-38
2023/07/31 07:46:37;;;;;;;58.50;3.90;;;;;;;24.48;52.05;98966.22;7313347;19;129411;-41
2023/07/31 07:49:02;;;;;;;54.20;3.63;;;;;;;24.62;51.98;98978.59;7309850;19;131000;-41
2023/07/31 07:51:30;;;;;;;57.10;4.10;;;;;;;24.74;55.10;98987.78;7313592;19;129696;-40
2023/07/31 07:53:55;;;;;;;98.70;6.10;;;;;;;24.82;55.77;98990.34;7316258;19;128809;-38
2023/07/31 07:56:21;;;;;;;63.07;4.13;;;;;;;24.86;56.39;98987.19;7312792;19;130197;-37
2023/07/31 07:58:49;;;;;;;31.23;2.20;;;;;;;24.89;56.67;98997.34;7310939;19;131349;-41
2023/07/31 08:01:14;;;;;;;28.33;2.28;;;;;;;24.93;56.33;98997.81;7314966;19;129121;-39
2023/07/31 08:03:40;;;;;;;29.27;2.03;;;;;;;24.91;56.97;98997.16;7316208;19;129012;-39
2023/07/31 08:06:05;;;;;;;70.87;4.60;;;;;;;24.88;56.67;98998.34;7314122;19;129900;-37
2023/07/31 08:08:30;;;;;;;73.67;4.57;;;;;;;24.92;56.93;99012.78;7310028;19;130215;-39
2023/07/31 08:10:56;;;;;;;48.10;3.33;;;;;;;24.92;57.24;99004.09;7313048;19;130344;-38
2023/07/31 08:13:21;;;;;;;44.23;2.97;;;;;;;24.91;57.48;99005.88;7314567;19;129262;-38
2023/07/31 08:15:46;;;;;;;64.53;4.27;;;;;;;24.91;57.17;99005.88;7314512;19;129178;-37
2023/07/31 08:18:12;;;;;;;89.47;5.53;;;;;;;24.90;56.89;99012.16;7307205;19;131184;-39
2023/07/31 08:20:37;;;;;;;87.50;5.23;;;;;;;24.88;57.09;99002.78;7306279;19;130518;-40
2023/07/31 08:23:03;;;;;;;71.60;4.63;;;;;;;24.90;57.08;99009.50;7310584;19;130410;-39
2023/07/31 08:25:29;;;;;;;96.40;6.20;;;;;;;24.70;54.24;98999.63;7313213;19;130119;-40
2023/07/31 08:27:55;;;;;;;73.77;4.23;;;;;;;24.57;53.11;99007.22;7309858;19;129028;-38
2023/07/31 08:30:21;;;;;;;118.87;6.87;;;;;;;24.58;52.10;99003.63;7310491;19;130970;-37
2023/07/31 08:32:46;;;;;;;70.13;4.77;;;;;;;24.59;52.09;99005.25;7311219;19;129330;-41
2023/07/31 08:35:12;;;;;;;51.90;3.27;;;;;;;24.72;54.97;99000.25;7310695;19;129212;-40
2023/07/31 08:37:38;;;;;;;95.93;6.23;;;;;;;24.79;55.83;98996.75;7309666;19;129540;-38
2023/07/31 08:40:04;;;;;;;95.82;5.80;;;;;;;24.83;56.70;99002.47;7311724;19;129713;-38
2023/07/31 08:42:30;;;;;;;53.67;3.45;;;;;;;24.76;56.80;98986.59;7312480;19;129510;-37
2023/07/31 08:44:56;;;;;;;44.33;2.97;;;;;;;24.88;56.99;99010.66;7312616;19;129598;-37
2023/07/31 08:47:22;;;;;;;38.65;2.83;;;;;;;24.90;56.33;99008.69;7310790;19;129657;-38
2023/07/31 08:49:48;;;;;;;93.28;5.72;;;;;;;24.90;56.59;99008.69;7310714;19;130309;-38
2023/07/31 08:52:13;;;;;;;56.63;3.67;;;;;;;24.91;56.84;99005.06;7311267;19;128986;-39
2023/07/31 08:54:39;;;;;;;76.07;4.93;;;;;;;24.83;57.10;98977.00;7308139;19;130815;-38
2023/07/31 08:57:06;;;;;;;51.40;3.30;;;;;;;24.94;56.79;98994.22;7311236;19;130150;-38
2023/07/31 08:59:34;;;;;;;39.50;2.53;;;;;;;24.86;56.65;98975.88;7308318;19;129203;-38
2023/07/31 09:02:05;;;;;;;66.72;4.35;;;;;;;24.95;57.34;98995.84;7309966;19;129142;-38
2023/07/31 09:04:31;;;;;;;30.45;2.20;;;;;;;24.93;57.04;98992.56;7311118;19;128955;-40
2023/07/31 09:07:00;;;;;;;72.00;4.70;;;;;;;24.94;57.64;98994.22;7310367;19;129411;-38
2023/07/31 09:09:26;;;;;;;46.05;3.20;;;;;;;24.93;56.83;98992.56;7311230;19;129804;-38
2023/07/31 09:11:52;;;;;;;87.00;5.27;;;;;;;24.66;53.64;99006.19;7311065;19;128990;-39
2023/07/31 09:14:18;;;;;;;44.40;2.90;;;;;;;24.59;52.54;99000.81;7309932;19;128929;-38
2023/07/31 09:16:58;;;;;;;59.90;3.83;;;;;;;24.55;52.79;98998.69;7309795;19;130704;-41
2023/07/31 09:19:34;;;;;;;44.47;2.95;;;;;;;24.60;54.59;98991.09;7311678;19;129303;-40
2023/07/31 09:22:00;;;;;;;59.03;3.72;;;;;;;24.72;55.77;98992.38;7312876;19;129181;-42
2023/07/31 09:24:27;;;;;;;49.72;3.10;;;;;;;24.71;56.64;98977.59;7312887;19;129168;-37
2023/07/31 09:26:58;;;;;;;51.10;3.25;;;;;;;24.85;56.57;98985.56;7309741;19;129303;-41
2023/07/31 09:29:26;;;;;;;110.88;6.90;;;;;;;24.87;56.52;98975.69;7309484;19;130180;-40
2023/07/31 09:31:53;;;;;;;22.65;1.98;;;;;;;24.90;56.69;98971.88;7310408;19;129417;-37
2023/07/31 09:34:18;;;;;;;;;;;;;;;24.98;57.06;98974.44;7312032;19;129058;-38
2023/07/31 09:36:44;;;;;;;;;;;;;;;25.01;57.36;98979.34;7312537;19;129524;-37
2023/07/31 09:39:11;;;;;;;;;;;;;;;24.99;57.30;98965.56;7309321;19;129207;-37
2023/07/31 09:41:38;;;;;;;;;;;;;;;25.01;57.47;98974.06;7310851;19;128893;-40
2023/07/31 09:44:03;;;;;;;;;;;;;;;25.05;57.49;98959.59;7312135;19;129282;-38
2023/07/31 09:46:29;;;;;;;;;;;;;;;25.05;57.11;98964.84;7311958;19;128961;-39
2023/07/31 09:49:03;;;;;;;;;;;;;;;25.06;57.62;98964.66;7310106;19;129284;-38
2023/07/31 09:51:30;;;;;;;;;;;;;;;25.08;57.14;98959.22;7312684;19;129710;-38
2023/07/31 09:53:56;;;;;;;;;;;;;;;25.09;57.43;98956.41;7312257;19;130192;-39
2023/07/31 09:56:21;;;;;;;;;;;;;;;24.85;54.23;98958.44;7309702;19;130635;-42
2023/07/31 09:58:47;;;;;;;;;;;;;;;24.66;53.00;98964.13;7310040;19;129890;-37
2023/07/31 10:01:13;;;;;;;;;;;;;;;24.62;52.30;98962.84;7311792;19;128889;-37
2023/07/31 10:03:39;;;;;;;;;;;;;;;24.62;52.70;98968.09;7313876;19;129354;-35
2023/07/31 10:06:05;;;;;;;;;;;;;;;24.75;56.14;98968.38;7317698;19;129453;-37
2023/07/31 10:08:32;;;;;;;;;;;;;;;24.86;56.04;98960.88;7316103;19;129235;-38
2023/07/31 10:10:58;;;;;;;;;;;;;;;24.94;56.91;98957.38;7317813;19;128729;-39
2023/07/31 10:13:24;;;;;;;;;;;;;;;24.99;56.93;98965.56;7318085;19;129214;-38
2023/07/31 10:15:49;;;;;;;;;;;;;;;25.02;57.30;98955.53;7319177;19;129198;-40
2023/07/31 10:18:15;;;;;;;;;;;;;;;25.04;56.99;98950.88;7316588;19;129243;-38
2023/07/31 10:20:41;;;;;;;;;;;;;;;25.04;57.05;98945.63;7318184;19;129011;-38
2023/07/31 10:23:06;;;;;;;;;;;;;;;25.05;56.90;98955.16;7318681;19;128873;-38
2023/07/31 10:25:31;;;;;;;;;;;;;;;25.07;56.92;98944.47;7318310;19;130315;-39
2023/07/31 10:27:57;;;;;;;;;;;;;;;25.09;57.28;98947.72;7317314;19;130299;-37
2023/07/31 10:30:27;;;;;;;;;;;;;;;25.11;57.33;98943.09;7315517;19;128913;-37
2023/07/31 10:32:53;;;;;;;;;;;;;;;25.10;57.33;98934.41;7317754;19;129143;-38
2023/07/31 10:35:18;;;;;;;;;;;;;;;25.10;57.60;98939.66;7317340;19;129037;-41
2023/07/31 10:37:44;;;;;;;;;;;;;;;25.09;57.33;98930.13;7316078;19;130202;-37
2023/07/31 10:40:11;;;;;;;;;;;;;;;25.08;57.60;98932.94;7317940;19;129018;-37
2023/07/31 10:42:47;;;;;;;;;;;;;;;24.74;52.92;98932.56;7316865;19;129443;-40
2023/07/31 10:45:13;;;;;;;;;;;;;;;24.69;53.72;98932.28;7318100;19;129162;-39
2023/07/31 10:47:42;;;;;;;;;;;;;;;24.49;51.68;98900.34;7316012;19;129144;-38
2023/07/31 10:50:16;;;;;;;;;;;;;;;24.71;55.89;98919.78;7318475;19;129327;-39
2023/07/31 10:52:43;;;;;;;;;;;;;;;24.82;56.38;98912.28;7318729;19;129301;-38
2023/07/31 10:55:15;;;;;;;;;;;;;;;24.91;56.36;98928.78;7317498;19;129995;-38
2023/07/31 10:57:43;;;;;;;;;;;;;;;24.96;56.49;98921.19;7314840;19;129401;-38
2023/07/31 11:00:23;;;;;;;;;;;;;;;24.97;57.20;98921.03;7317097;19;128772;-38
2023/07/31 11:03:03;;;;;;;;;;;;;;;24.98;56.86;98913.94;7317704;19;128770;-38
2023/07/31 11:05:45;;;;;;;;;;;;;;;24.99;57.37;98918.22;7316293;19;130814;-38
2023/07/31 11:08:14;;;;;;;;;;;;;;;24.99;57.28;98907.72;7314741;19;130990;-39
2023/07/31 11:10:40;;;;;;;;;;;;;;;25.03;57.54;98914.22;7317015;19;128894;-38
2023/07/31 11:13:05;;;;;;;;;;;;;;;25.02;57.33;98907.34;7313431;19;129822;-38
2023/07/31 11:15:31;;;;;;;;;;;;;;;25.04;57.19;98900.09;7315568;19;129220;-44
2023/07/31 11:17:58;;;;;;;;;;;;;;;25.06;57.76;98898.09;7315077;19;129233;-38
2023/07/31 11:20:23;;;;;;;;;;;;;;;25.05;57.27;98902.56;7317365;19;129344;-38
2023/07/31 11:22:49;;;;;;;;;;;;;;;25.05;58.00;98907.00;7315929;19;129307;-39
2023/07/31 11:25:14;;;;;;;;;;;;;;;25.04;58.01;98894.84;7316636;19;130735;-36
2023/07/31 11:27:43;;;;;;;;;;;;;;;24.69;53.10;98895.47;7313840;19;130353;-39
2023/07/31 11:30:09;;;;;;;;;;;;;;;24.60;52.70;98902.56;7316853;19;129101;-39
2023/07/31 11:32:36;;;;;;;;;;;;;;;24.54;51.73;98891.94;7316558;19;129015;-38